sensor_id;sensor_type;location;lat;lon;timestamp;temperature;humidity
13203;DHT22;6666;51.626;7.530;2023-10-13T00:00:43;16.90;99.90
13203;DHT22;6666;51.626;7.530;2023-10-13T00:03:11;16.80;99.90
13203;DHT22;6666;51.626;7.530;2023-10-13T00:05:43;16.80;99.90
13203;DHT22;6666;51.626;7.530;2023-10-13T00:08:12;16.80;99.90
13203;DHT22;6666;51.626;7.530;2023-10-13T00:10:41;16.80;99.90
13203;DHT22;6666;51.626;7.530;2023-10-13T00:13:10;16.80;99.90
13203;DHT22;6666;51.626;7.530;2023-10-13T00:15:42;16.80;99.90
13203;DHT22;6666;51.626;7.530;2023-10-13T00:18:22;16.70;99.90
13203;DHT22;6666;51.626;7.530;2023-10-13T00:20:50;16.70;99.90
13203;DHT22;6666;51.626;7.530;2023-10-13T00:23:18;16.70;99.90
13203;DHT22;6666;51.626;7.530;2023-10-13T00:25:49;16.70;99.90
13203;DHT22;6666;51.626;7.530;2023-10-13T00:28:26;16.70;99.90
13203;DHT22;6666;51.626;7.530;2023-10-13T00:31:04;16.70;99.90
13203;DHT22;6666;51.626;7.530;2023-10-13T00:33:38;16.70;99.90
13203;DHT22;6666;51.626;7.530;2023-10-13T00:36:08;16.70;99.90
13203;DHT22;6666;51.626;7.530;2023-10-13T00:38:44;16.70;99.90
13203;DHT22;6666;51.626;7.530;2023-10-13T00:41:15;16.80;99.90
13203;DHT22;6666;51.626;7.530;2023-10-13T00:43:45;16.80;99.90
13203;DHT22;6666;51.626;7.530;2023-10-13T00:46:14;16.80;99.90
13203;DHT22;6666;51.626;7.530;2023-10-13T00:48:46;16.80;99.90
13203;DHT22;6666;51.626;7.530;2023-10-13T00:51:38;16.80;99.90
13203;DHT22;6666;51.626;7.530;2023-10-13T00:54:09;16.80;99.90
13203;DHT22;6666;51.626;7.530;2023-10-13T00:56:39;16.80;99.90
13203;DHT22;6666;51.626;7.530;2023-10-13T00:59:16;16.80;99.90
13203;DHT22;6666;51.626;7.530;2023-10-13T01:01:46;16.80;99.90
13203;DHT22;6666;51.626;7.530;2023-10-13T01:04:22;16.80;99.90
13203;DHT22;6666;51.626;7.530;2023-10-13T01:06:51;16.80;99.90
13203;DHT22;6666;51.626;7.530;2023-10-13T01:09:20;16.80;99.90
13203;DHT22;6666;51.626;7.530;2023-10-13T01:11:51;16.80;99.90
13203;DHT22;6666;51.626;7.530;2023-10-13T01:14:20;16.80;99.90
13203;DHT22;6666;51.626;7.530;2023-10-13T01:16:49;16.80;99.90
13203;DHT22;6666;51.626;7.530;2023-10-13T01:19:20;16.80;99.90
13203;DHT22;6666;51.626;7.530;2023-10-13T01:21:52;16.80;99.90
13203;DHT22;6666;51.626;7.530;2023-10-13T01:24:30;16.80;99.90
13203;DHT22;6666;51.626;7.530;2023-10-13T01:27:01;16.70;99.90
13203;DHT22;6666;51.626;7.530;2023-10-13T01:29:44;16.80;99.90
13203;DHT22;6666;51.626;7.530;2023-10-13T01:32:16;16.80;99.90
13203;DHT22;6666;51.626;7.530;2023-10-13T01:34:45;16.80;99.90
13203;DHT22;6666;51.626;7.530;2023-10-13T01:37:14;16.80;99.90
13203;DHT22;6666;51.626;7.530;2023-10-13T01:39:45;16.80;99.90
13203;DHT22;6666;51.626;7.530;2023-10-13T01:42:15;16.80;99.90
13203;DHT22;6666;51.626;7.530;2023-10-13T01:44:47;16.80;99.90
13203;DHT22;6666;51.626;7.530;2023-10-13T01:47:15;16.80;99.90
13203;DHT22;6666;51.626;7.530;2023-10-13T01:49:43;16.80;99.90
13203;DHT22;6666;51.626;7.530;2023-10-13T01:52:14;16.80;99.90
13203;DHT22;6666;51.626;7.530;2023-10-13T01:54:46;16.90;99.90
13203;DHT22;6666;51.626;7.530;2023-10-13T01:57:16;16.90;99.90
13203;DHT22;6666;51.626;7.530;2023-10-13T01:59:46;16.90;99.90
13203;DHT22;6666;51.626;7.530;2023-10-13T02:02:15;17.00;99.90
13203;DHT22;6666;51.626;7.530;2023-10-13T02:04:46;17.00;99.90
13203;DHT22;6666;51.626;7.530;2023-10-13T02:07:24;17.00;99.90
13203;DHT22;6666;51.626;7.530;2023-10-13T02:09:59;17.00;99.90
13203;DHT22;6666;51.626;7.530;2023-10-13T02:12:31;17.00;99.90
13203;DHT22;6666;51.626;7.530;2023-10-13T02:15:04;17.00;99.90
13203;DHT22;6666;51.626;7.530;2023-10-13T02:17:32;17.00;99.90
13203;DHT22;6666;51.626;7.530;2023-10-13T02:20:08;17.00;99.90
13203;DHT22;6666;51.626;7.530;2023-10-13T02:22:42;17.00;99.90
13203;DHT22;6666;51.626;7.530;2023-10-13T02:25:17;17.10;99.90
13203;DHT22;6666;51.626;7.530;2023-10-13T02:28:03;17.00;99.90
13203;DHT22;6666;51.626;7.530;2023-10-13T02:30:37;17.10;99.90
13203;DHT22;6666;51.626;7.530;2023-10-13T02:33:05;17.10;99.90
13203;DHT22;6666;51.626;7.530;2023-10-13T02:35:33;17.10;99.90
13203;DHT22;6666;51.626;7.530;2023-10-13T02:38:02;17.00;99.90
13203;DHT22;6666;51.626;7.530;2023-10-13T02:40:39;17.10;99.90
13203;DHT22;6666;51.626;7.530;2023-10-13T02:43:06;17.10;99.90
13203;DHT22;6666;51.626;7.530;2023-10-13T02:45:34;17.10;99.90
13203;DHT22;6666;51.626;7.530;2023-10-13T02:48:04;17.10;99.90
13203;DHT22;6666;51.626;7.530;2023-10-13T02:50:41;17.10;99.90
13203;DHT22;6666;51.626;7.530;2023-10-13T02:53:12;17.10;99.90
13203;DHT22;6666;51.626;7.530;2023-10-13T02:55:50;17.10;99.90
13203;DHT22;6666;51.626;7.530;2023-10-13T02:58:18;17.10;99.90
13203;DHT22;6666;51.626;7.530;2023-10-13T03:00:47;17.10;99.90
13203;DHT22;6666;51.626;7.530;2023-10-13T03:03:15;17.00;99.90
13203;DHT22;6666;51.626;7.530;2023-10-13T03:05:45;17.10;99.90
13203;DHT22;6666;51.626;7.530;2023-10-13T03:08:13;17.10;99.90
13203;DHT22;6666;51.626;7.530;2023-10-13T03:10:57;17.10;99.90
13203;DHT22;6666;51.626;7.530;2023-10-13T03:13:24;17.10;99.90
13203;DHT22;6666;51.626;7.530;2023-10-13T03:15:54;17.10;99.90
13203;DHT22;6666;51.626;7.530;2023-10-13T03:18:22;17.10;99.90
13203;DHT22;6666;51.626;7.530;2023-10-13T03:20:50;17.10;99.90
13203;DHT22;6666;51.626;7.530;2023-10-13T03:23:23;17.10;99.90
13203;DHT22;6666;51.626;7.530;2023-10-13T03:25:51;17.00;99.90
13203;DHT22;6666;51.626;7.530;2023-10-13T03:28:24;17.00;99.90
13203;DHT22;6666;51.626;7.530;2023-10-13T03:31:00;17.00;99.90
13203;DHT22;6666;51.626;7.530;2023-10-13T03:33:29;17.10;99.90
13203;DHT22;6666;51.626;7.530;2023-10-13T03:35:59;17.00;99.90
13203;DHT22;6666;51.626;7.530;2023-10-13T03:38:32;17.10;99.90
13203;DHT22;6666;51.626;7.530;2023-10-13T03:41:03;17.00;99.90
13203;DHT22;6666;51.626;7.530;2023-10-13T03:43:40;17.00;99.90
13203;DHT22;6666;51.626;7.530;2023-10-13T03:46:17;17.00;99.90
13203;DHT22;6666;51.626;7.530;2023-10-13T03:48:48;17.00;99.90
13203;DHT22;6666;51.626;7.530;2023-10-13T03:51:28;17.00;99.90
13203;DHT22;6666;51.626;7.530;2023-10-13T03:53:58;17.00;99.90
13203;DHT22;6666;51.626;7.530;2023-10-13T03:56:34;16.90;99.90
13203;DHT22;6666;51.626;7.530;2023-10-13T03:59:09;16.90;99.90
13203;DHT22;6666;51.626;7.530;2023-10-13T04:01:46;16.90;99.90
13203;DHT22;6666;51.626;7.530;2023-10-13T04:04:25;16.90;99.90
13203;DHT22;6666;51.626;7.530;2023-10-13T04:07:09;16.90;99.90
13203;DHT22;6666;51.626;7.530;2023-10-13T04:09:55;16.90;99.90
13203;DHT22;6666;51.626;7.530;2023-10-13T04:12:37;16.90;99.90
13203;DHT22;6666;51.626;7.530;2023-10-13T04:15:24;16.90;99.90
13203;DHT22;6666;51.626;7.530;2023-10-13T04:18:04;16.90;99.90
13203;DHT22;6666;51.626;7.530;2023-10-13T04:20:41;16.90;99.90
13203;DHT22;6666;51.626;7.530;2023-10-13T04:23:13;16.90;99.90
13203;DHT22;6666;51.626;7.530;2023-10-13T04:25:49;16.90;99.90
13203;DHT22;6666;51.626;7.530;2023-10-13T04:28:48;16.90;99.90
13203;DHT22;6666;51.626;7.530;2023-10-13T04:31:20;16.90;99.90
13203;DHT22;6666;51.626;7.530;2023-10-13T04:34:07;16.90;99.90
13203;DHT22;6666;51.626;7.530;2023-10-13T04:36:45;16.90;99.90
13203;DHT22;6666;51.626;7.530;2023-10-13T04:39:13;16.90;99.90
13203;DHT22;6666;51.626;7.530;2023-10-13T04:41:56;16.90;99.90
13203;DHT22;6666;51.626;7.530;2023-10-13T04:44:40;16.90;99.90
13203;DHT22;6666;51.626;7.530;2023-10-13T04:47:20;16.90;99.90
13203;DHT22;6666;51.626;7.530;2023-10-13T04:49:49;16.90;99.90
13203;DHT22;6666;51.626;7.530;2023-10-13T04:52:19;16.90;99.90
13203;DHT22;6666;51.626;7.530;2023-10-13T04:55:06;16.90;99.90
13203;DHT22;6666;51.626;7.530;2023-10-13T04:57:44;16.90;99.90
13203;DHT22;6666;51.626;7.530;2023-10-13T05:00:16;16.80;99.90
13203;DHT22;6666;51.626;7.530;2023-10-13T05:03:04;16.80;99.90
13203;DHT22;6666;51.626;7.530;2023-10-13T05:05:49;16.80;99.90
13203;DHT22;6666;51.626;7.530;2023-10-13T05:08:34;16.80;99.90
13203;DHT22;6666;51.626;7.530;2023-10-13T05:11:20;16.80;99.90
13203;DHT22;6666;51.626;7.530;2023-10-13T05:14:06;16.80;99.90
13203;DHT22;6666;51.626;7.530;2023-10-13T05:16:51;16.80;99.90
13203;DHT22;6666;51.626;7.530;2023-10-13T05:19:38;16.80;99.90
13203;DHT22;6666;51.626;7.530;2023-10-13T05:22:24;16.80;99.90
13203;DHT22;6666;51.626;7.530;2023-10-13T05:25:10;16.80;99.90
13203;DHT22;6666;51.626;7.530;2023-10-13T05:27:55;16.90;99.90
13203;DHT22;6666;51.626;7.530;2023-10-13T05:31:00;16.90;99.90
13203;DHT22;6666;51.626;7.530;2023-10-13T05:33:45;16.90;99.90
13203;DHT22;6666;51.626;7.530;2023-10-13T05:36:32;16.90;99.90
13203;DHT22;6666;51.626;7.530;2023-10-13T05:39:18;16.90;99.90
13203;DHT22;6666;51.626;7.530;2023-10-13T05:42:04;16.90;99.90
13203;DHT22;6666;51.626;7.530;2023-10-13T05:44:49;17.00;99.90
13203;DHT22;6666;51.626;7.530;2023-10-13T05:47:44;17.00;99.90
13203;DHT22;6666;51.626;7.530;2023-10-13T05:50:17;17.00;99.90
13203;DHT22;6666;51.626;7.530;2023-10-13T05:53:18;17.00;99.90
13203;DHT22;6666;51.626;7.530;2023-10-13T05:56:11;17.10;99.90
13203;DHT22;6666;51.626;7.530;2023-10-13T05:58:57;17.10;99.90
13203;DHT22;6666;51.626;7.530;2023-10-13T06:01:43;17.10;99.90
13203;DHT22;6666;51.626;7.530;2023-10-13T06:04:29;17.10;99.90
13203;DHT22;6666;51.626;7.530;2023-10-13T06:07:16;17.10;99.90
13203;DHT22;6666;51.626;7.530;2023-10-13T06:10:03;17.10;99.90
13203;DHT22;6666;51.626;7.530;2023-10-13T06:12:49;17.10;99.90
13203;DHT22;6666;51.626;7.530;2023-10-13T06:15:36;17.10;99.90
13203;DHT22;6666;51.626;7.530;2023-10-13T06:18:21;17.20;99.90
13203;DHT22;6666;51.626;7.530;2023-10-13T06:21:07;17.20;99.90
13203;DHT22;6666;51.626;7.530;2023-10-13T06:23:52;17.20;99.90
13203;DHT22;6666;51.626;7.530;2023-10-13T06:26:40;17.20;99.90
13203;DHT22;6666;51.626;7.530;2023-10-13T06:29:33;17.20;99.90
13203;DHT22;6666;51.626;7.530;2023-10-13T06:32:02;17.20;99.90
13203;DHT22;6666;51.626;7.530;2023-10-13T06:34:40;17.20;99.90
13203;DHT22;6666;51.626;7.530;2023-10-13T06:37:11;17.30;99.90
13203;DHT22;6666;51.626;7.530;2023-10-13T06:39:52;17.30;99.90
13203;DHT22;6666;51.626;7.530;2023-10-13T06:42:24;17.20;99.90
13203;DHT22;6666;51.626;7.530;2023-10-13T06:44:54;17.30;99.90
13203;DHT22;6666;51.626;7.530;2023-10-13T06:47:22;17.30;99.90
13203;DHT22;6666;51.626;7.530;2023-10-13T06:49:51;17.30;99.90
13203;DHT22;6666;51.626;7.530;2023-10-13T06:52:21;17.30;99.90
13203;DHT22;6666;51.626;7.530;2023-10-13T06:54:50;17.30;99.90
13203;DHT22;6666;51.626;7.530;2023-10-13T06:57:18;17.30;99.90
13203;DHT22;6666;51.626;7.530;2023-10-13T06:59:49;17.30;99.90
13203;DHT22;6666;51.626;7.530;2023-10-13T07:02:20;17.40;99.90
13203;DHT22;6666;51.626;7.530;2023-10-13T07:04:54;17.40;99.90
13203;DHT22;6666;51.626;7.530;2023-10-13T07:07:34;17.40;99.90
13203;DHT22;6666;51.626;7.530;2023-10-13T07:10:07;17.40;99.90
13203;DHT22;6666;51.626;7.530;2023-10-13T07:12:35;17.50;99.90
13203;DHT22;6666;51.626;7.530;2023-10-13T07:15:06;17.50;99.90
13203;DHT22;6666;51.626;7.530;2023-10-13T07:17:46;17.60;99.90
13203;DHT22;6666;51.626;7.530;2023-10-13T07:20:21;17.60;99.90
13203;DHT22;6666;51.626;7.530;2023-10-13T07:22:59;17.60;99.90
13203;DHT22;6666;51.626;7.530;2023-10-13T07:25:31;17.70;99.90
13203;DHT22;6666;51.626;7.530;2023-10-13T07:28:01;17.80;99.90
13203;DHT22;6666;51.626;7.530;2023-10-13T07:30:32;17.80;99.90
13203;DHT22;6666;51.626;7.530;2023-10-13T07:33:06;17.90;99.90
13203;DHT22;6666;51.626;7.530;2023-10-13T07:35:40;18.00;99.90
13203;DHT22;6666;51.626;7.530;2023-10-13T07:38:09;18.00;99.90
13203;DHT22;6666;51.626;7.530;2023-10-13T07:40:37;18.10;99.90
13203;DHT22;6666;51.626;7.530;2023-10-13T07:43:08;18.10;99.90
13203;DHT22;6666;51.626;7.530;2023-10-13T07:45:38;18.10;99.90
13203;DHT22;6666;51.626;7.530;2023-10-13T07:48:08;18.20;99.90
13203;DHT22;6666;51.626;7.530;2023-10-13T07:50:40;18.20;99.90
13203;DHT22;6666;51.626;7.530;2023-10-13T07:53:08;18.20;99.90
13203;DHT22;6666;51.626;7.530;2023-10-13T07:55:50;18.30;99.90
13203;DHT22;6666;51.626;7.530;2023-10-13T07:58:22;18.30;99.90
13203;DHT22;6666;51.626;7.530;2023-10-13T08:00:54;18.30;99.90
13203;DHT22;6666;51.626;7.530;2023-10-13T08:03:33;18.40;99.90
13203;DHT22;6666;51.626;7.530;2023-10-13T08:06:15;18.40;99.90
13203;DHT22;6666;51.626;7.530;2023-10-13T08:08:48;18.50;99.90
13203;DHT22;6666;51.626;7.530;2023-10-13T08:11:21;18.50;99.90
13203;DHT22;6666;51.626;7.530;2023-10-13T08:13:55;18.50;99.90
13203;DHT22;6666;51.626;7.530;2023-10-13T08:16:43;18.50;99.90
13203;DHT22;6666;51.626;7.530;2023-10-13T08:19:21;18.50;99.90
13203;DHT22;6666;51.626;7.530;2023-10-13T08:21:55;18.50;99.90
13203;DHT22;6666;51.626;7.530;2023-10-13T08:24:27;18.50;99.90
13203;DHT22;6666;51.626;7.530;2023-10-13T08:27:19;18.60;99.90
13203;DHT22;6666;51.626;7.530;2023-10-13T08:30:04;18.60;99.90
13203;DHT22;6666;51.626;7.530;2023-10-13T08:32:59;18.80;99.90
13203;DHT22;6666;51.626;7.530;2023-10-13T08:35:44;18.90;99.90
13203;DHT22;6666;51.626;7.530;2023-10-13T08:38:32;19.10;99.90
13203;DHT22;6666;51.626;7.530;2023-10-13T08:41:17;19.20;99.90
13203;DHT22;6666;51.626;7.530;2023-10-13T08:44:02;19.30;99.90
13203;DHT22;6666;51.626;7.530;2023-10-13T08:46:32;19.40;99.90
13203;DHT22;6666;51.626;7.530;2023-10-13T08:49:28;19.40;99.90
13203;DHT22;6666;51.626;7.530;2023-10-13T08:51:58;19.40;99.90
13203;DHT22;6666;51.626;7.530;2023-10-13T08:54:54;19.50;99.90
13203;DHT22;6666;51.626;7.530;2023-10-13T08:57:36;19.60;99.90
13203;DHT22;6666;51.626;7.530;2023-10-13T09:00:05;19.70;99.90
13203;DHT22;6666;51.626;7.530;2023-10-13T09:02:51;19.80;99.90
13203;DHT22;6666;51.626;7.530;2023-10-13T09:05:57;20.00;99.90
13203;DHT22;6666;51.626;7.530;2023-10-13T09:08:29;20.10;99.90
13203;DHT22;6666;51.626;7.530;2023-10-13T09:11:11;20.10;99.90
13203;DHT22;6666;51.626;7.530;2023-10-13T09:13:40;20.20;99.90
13203;DHT22;6666;51.626;7.530;2023-10-13T09:16:12;20.20;99.90
13203;DHT22;6666;51.626;7.530;2023-10-13T09:19:09;20.20;99.90
13203;DHT22;6666;51.626;7.530;2023-10-13T09:21:41;20.20;99.90
13203;DHT22;6666;51.626;7.530;2023-10-13T09:24:21;20.10;99.90
13203;DHT22;6666;51.626;7.530;2023-10-13T09:26:54;20.10;99.90
13203;DHT22;6666;51.626;7.530;2023-10-13T09:29:24;20.20;99.90
13203;DHT22;6666;51.626;7.530;2023-10-13T09:32:02;20.30;99.90
13203;DHT22;6666;51.626;7.530;2023-10-13T09:34:32;20.40;99.90
13203;DHT22;6666;51.626;7.530;2023-10-13T09:37:03;20.30;99.90
13203;DHT22;6666;51.626;7.530;2023-10-13T09:39:33;20.40;99.90
13203;DHT22;6666;51.626;7.530;2023-10-13T09:42:12;20.30;99.90
13203;DHT22;6666;51.626;7.530;2023-10-13T09:44:45;20.30;99.90
13203;DHT22;6666;51.626;7.530;2023-10-13T09:47:21;20.40;99.90
13203;DHT22;6666;51.626;7.530;2023-10-13T09:50:00;20.50;99.90
13203;DHT22;6666;51.626;7.530;2023-10-13T09:52:34;20.50;99.90
13203;DHT22;6666;51.626;7.530;2023-10-13T09:55:16;20.60;99.90
13203;DHT22;6666;51.626;7.530;2023-10-13T09:57:51;20.60;99.90
13203;DHT22;6666;51.626;7.530;2023-10-13T10:00:27;20.70;99.90
13203;DHT22;6666;51.626;7.530;2023-10-13T10:03:19;20.70;99.90
13203;DHT22;6666;51.626;7.530;2023-10-13T10:06:05;20.80;99.90
13203;DHT22;6666;51.626;7.530;2023-10-13T10:08:46;20.80;99.90
13203;DHT22;6666;51.626;7.530;2023-10-13T10:14:35;20.80;99.90
13203;DHT22;6666;51.626;7.530;2023-10-13T10:17:05;20.70;99.90
13203;DHT22;6666;51.626;7.530;2023-10-13T10:19:49;20.90;99.90
13203;DHT22;6666;51.626;7.530;2023-10-13T10:22:28;21.00;99.90
13203;DHT22;6666;51.626;7.530;2023-10-13T10:25:02;21.10;99.90
13203;DHT22;6666;51.626;7.530;2023-10-13T10:27:33;21.10;99.90
13203;DHT22;6666;51.626;7.530;2023-10-13T10:30:02;21.10;99.90
13203;DHT22;6666;51.626;7.530;2023-10-13T10:32:37;21.30;99.90
13203;DHT22;6666;51.626;7.530;2023-10-13T10:35:08;21.30;99.90
13203;DHT22;6666;51.626;7.530;2023-10-13T10:37:42;21.30;99.90
13203;DHT22;6666;51.626;7.530;2023-10-13T10:40:17;21.40;99.90
13203;DHT22;6666;51.626;7.530;2023-10-13T10:43:01;21.30;99.90
13203;DHT22;6666;51.626;7.530;2023-10-13T10:45:55;21.30;99.90
13203;DHT22;6666;51.626;7.530;2023-10-13T10:48:27;21.20;99.90
13203;DHT22;6666;51.626;7.530;2023-10-13T10:51:01;21.20;99.90
13203;DHT22;6666;51.626;7.530;2023-10-13T10:53:41;21.50;99.90
13203;DHT22;6666;51.626;7.530;2023-10-13T10:56:14;21.50;99.90
13203;DHT22;6666;51.626;7.530;2023-10-13T10:58:54;21.60;99.90
13203;DHT22;6666;51.626;7.530;2023-10-13T11:01:24;21.70;99.90
13203;DHT22;6666;51.626;7.530;2023-10-13T11:04:02;21.70;99.90
13203;DHT22;6666;51.626;7.530;2023-10-13T11:06:35;21.70;99.90
13203;DHT22;6666;51.626;7.530;2023-10-13T11:09:09;21.70;99.90
13203;DHT22;6666;51.626;7.530;2023-10-13T11:11:49;21.80;99.90
13203;DHT22;6666;51.626;7.530;2023-10-13T11:14:20;21.90;99.90
13203;DHT22;6666;51.626;7.530;2023-10-13T11:16:51;21.90;99.90
13203;DHT22;6666;51.626;7.530;2023-10-13T11:19:32;21.90;99.90
13203;DHT22;6666;51.626;7.530;2023-10-13T11:22:10;22.00;99.90
13203;DHT22;6666;51.626;7.530;2023-10-13T11:24:42;22.10;99.90
13203;DHT22;6666;51.626;7.530;2023-10-13T11:27:15;22.10;99.90
13203;DHT22;6666;51.626;7.530;2023-10-13T11:29:48;22.00;99.90
13203;DHT22;6666;51.626;7.530;2023-10-13T11:32:19;22.10;99.90
13203;DHT22;6666;51.626;7.530;2023-10-13T11:34:49;22.10;99.90
13203;DHT22;6666;51.626;7.530;2023-10-13T11:37:21;22.10;99.90
13203;DHT22;6666;51.626;7.530;2023-10-13T11:40:06;22.10;99.90
13203;DHT22;6666;51.626;7.530;2023-10-13T11:42:44;22.20;99.90
13203;DHT22;6666;51.626;7.530;2023-10-13T11:45:14;22.20;99.90
13203;DHT22;6666;51.626;7.530;2023-10-13T11:47:55;22.30;99.90
13203;DHT22;6666;51.626;7.530;2023-10-13T11:50:26;22.40;99.90
13203;DHT22;6666;51.626;7.530;2023-10-13T11:53:01;22.50;99.90
13203;DHT22;6666;51.626;7.530;2023-10-13T11:55:34;22.60;99.90
13203;DHT22;6666;51.626;7.530;2023-10-13T11:58:04;22.60;99.90
13203;DHT22;6666;51.626;7.530;2023-10-13T12:00:34;22.60;99.90
13203;DHT22;6666;51.626;7.530;2023-10-13T12:03:16;22.40;99.90
13203;DHT22;6666;51.626;7.530;2023-10-13T12:06:01;22.40;99.90
13203;DHT22;6666;51.626;7.530;2023-10-13T12:08:46;22.30;99.90
13203;DHT22;6666;51.626;7.530;2023-10-13T12:11:19;22.30;99.90
13203;DHT22;6666;51.626;7.530;2023-10-13T12:14:00;22.30;99.90
13203;DHT22;6666;51.626;7.530;2023-10-13T12:16:38;22.30;99.90
13203;DHT22;6666;51.626;7.530;2023-10-13T12:19:07;22.20;99.90
13203;DHT22;6666;51.626;7.530;2023-10-13T12:21:38;22.20;99.90
13203;DHT22;6666;51.626;7.530;2023-10-13T12:24:07;22.30;99.90
13203;DHT22;6666;51.626;7.530;2023-10-13T12:26:48;22.30;99.90
13203;DHT22;6666;51.626;7.530;2023-10-13T12:29:24;22.30;99.90
13203;DHT22;6666;51.626;7.530;2023-10-13T12:31:55;22.30;99.90
13203;DHT22;6666;51.626;7.530;2023-10-13T12:34:35;22.40;99.90
13203;DHT22;6666;51.626;7.530;2023-10-13T12:37:28;22.40;99.90
13203;DHT22;6666;51.626;7.530;2023-10-13T12:40:17;22.40;99.90
13203;DHT22;6666;51.626;7.530;2023-10-13T12:43:04;22.50;99.90
13203;DHT22;6666;51.626;7.530;2023-10-13T12:45:51;22.40;99.90
13203;DHT22;6666;51.626;7.530;2023-10-13T12:48:38;22.40;99.90
13203;DHT22;6666;51.626;7.530;2023-10-13T12:51:39;22.40;99.90
13203;DHT22;6666;51.626;7.530;2023-10-13T12:54:18;22.50;99.90
13203;DHT22;6666;51.626;7.530;2023-10-13T12:56:54;22.50;99.90
13203;DHT22;6666;51.626;7.530;2023-10-13T12:59:24;22.60;99.90
13203;DHT22;6666;51.626;7.530;2023-10-13T13:01:55;22.70;99.90
13203;DHT22;6666;51.626;7.530;2023-10-13T13:04:24;22.80;99.90
13203;DHT22;6666;51.626;7.530;2023-10-13T13:06:52;22.80;99.90
13203;DHT22;6666;51.626;7.530;2023-10-13T13:09:21;22.80;99.90
13203;DHT22;6666;51.626;7.530;2023-10-13T13:11:53;22.70;99.90
13203;DHT22;6666;51.626;7.530;2023-10-13T13:14:25;22.80;99.90
13203;DHT22;6666;51.626;7.530;2023-10-13T13:16:58;22.60;99.90
13203;DHT22;6666;51.626;7.530;2023-10-13T13:19:34;22.40;99.90
13203;DHT22;6666;51.626;7.530;2023-10-13T13:22:07;22.30;99.90
13203;DHT22;6666;51.626;7.530;2023-10-13T13:24:39;22.40;99.90
13203;DHT22;6666;51.626;7.530;2023-10-13T13:27:10;22.40;99.90
13203;DHT22;6666;51.626;7.530;2023-10-13T13:29:41;22.50;99.90
13203;DHT22;6666;51.626;7.530;2023-10-13T13:32:11;22.50;99.90
13203;DHT22;6666;51.626;7.530;2023-10-13T13:34:46;22.50;99.90
13203;DHT22;6666;51.626;7.530;2023-10-13T13:37:22;22.60;99.90
13203;DHT22;6666;51.626;7.530;2023-10-13T13:39:54;22.70;99.90
13203;DHT22;6666;51.626;7.530;2023-10-13T13:42:22;22.60;99.90
13203;DHT22;6666;51.626;7.530;2023-10-13T13:44:50;22.60;99.90
13203;DHT22;6666;51.626;7.530;2023-10-13T13:47:20;22.80;99.90
13203;DHT22;6666;51.626;7.530;2023-10-13T13:49:49;22.80;99.90
13203;DHT22;6666;51.626;7.530;2023-10-13T13:52:19;22.70;99.90
13203;DHT22;6666;51.626;7.530;2023-10-13T13:55:00;22.60;99.90
13203;DHT22;6666;51.626;7.530;2023-10-13T13:57:29;22.50;99.90
13203;DHT22;6666;51.626;7.530;2023-10-13T13:59:57;22.50;99.90
13203;DHT22;6666;51.626;7.530;2023-10-13T14:02:27;22.60;99.90
13203;DHT22;6666;51.626;7.530;2023-10-13T14:04:56;22.70;99.90
13203;DHT22;6666;51.626;7.530;2023-10-13T14:07:24;22.70;99.90
13203;DHT22;6666;51.626;7.530;2023-10-13T14:09:52;22.70;99.90
13203;DHT22;6666;51.626;7.530;2023-10-13T14:12:32;22.60;99.90
13203;DHT22;6666;51.626;7.530;2023-10-13T14:15:09;22.60;99.90
13203;DHT22;6666;51.626;7.530;2023-10-13T14:17:48;22.60;99.90
13203;DHT22;6666;51.626;7.530;2023-10-13T14:20:17;22.60;99.90
13203;DHT22;6666;51.626;7.530;2023-10-13T14:22:46;22.60;99.90
13203;DHT22;6666;51.626;7.530;2023-10-13T14:25:16;22.80;99.90
13203;DHT22;6666;51.626;7.530;2023-10-13T14:27:45;22.70;99.90
13203;DHT22;6666;51.626;7.530;2023-10-13T14:30:13;22.80;99.90
13203;DHT22;6666;51.626;7.530;2023-10-13T14:32:48;22.80;99.90
13203;DHT22;6666;51.626;7.530;2023-10-13T14:35:16;22.70;99.90
13203;DHT22;6666;51.626;7.530;2023-10-13T14:37:45;22.70;99.90
13203;DHT22;6666;51.626;7.530;2023-10-13T14:40:13;22.60;99.90
13203;DHT22;6666;51.626;7.530;2023-10-13T14:42:43;22.50;99.90
13203;DHT22;6666;51.626;7.530;2023-10-13T14:45:13;22.50;99.90
13203;DHT22;6666;51.626;7.530;2023-10-13T14:47:43;22.30;99.90
13203;DHT22;6666;51.626;7.530;2023-10-13T14:50:13;22.30;99.90
13203;DHT22;6666;51.626;7.530;2023-10-13T14:52:47;22.20;99.90
13203;DHT22;6666;51.626;7.530;2023-10-13T14:55:16;22.20;99.90
13203;DHT22;6666;51.626;7.530;2023-10-13T14:57:49;22.20;99.90
13203;DHT22;6666;51.626;7.530;2023-10-13T15:00:18;22.10;99.90
13203;DHT22;6666;51.626;7.530;2023-10-13T15:02:52;22.20;99.90
13203;DHT22;6666;51.626;7.530;2023-10-13T15:05:23;22.10;99.90
13203;DHT22;6666;51.626;7.530;2023-10-13T15:07:51;22.00;99.90
13203;DHT22;6666;51.626;7.530;2023-10-13T15:10:19;22.10;99.90
13203;DHT22;6666;51.626;7.530;2023-10-13T15:12:47;22.00;99.90
13203;DHT22;6666;51.626;7.530;2023-10-13T15:15:16;21.90;99.90
13203;DHT22;6666;51.626;7.530;2023-10-13T15:17:46;21.90;99.90
13203;DHT22;6666;51.626;7.530;2023-10-13T15:20:15;21.90;99.90
13203;DHT22;6666;51.626;7.530;2023-10-13T15:22:48;21.90;99.90
13203;DHT22;6666;51.626;7.530;2023-10-13T15:25:16;21.80;99.90
13203;DHT22;6666;51.626;7.530;2023-10-13T15:27:48;21.70;99.90
13203;DHT22;6666;51.626;7.530;2023-10-13T15:30:22;21.70;99.90
13203;DHT22;6666;51.626;7.530;2023-10-13T15:32:53;21.70;99.90
13203;DHT22;6666;51.626;7.530;2023-10-13T15:35:24;21.80;99.90
13203;DHT22;6666;51.626;7.530;2023-10-13T15:37:57;21.70;99.90
13203;DHT22;6666;51.626;7.530;2023-10-13T15:40:25;21.70;99.90
13203;DHT22;6666;51.626;7.530;2023-10-13T15:42:54;21.70;99.90
13203;DHT22;6666;51.626;7.530;2023-10-13T15:45:26;21.70;99.90
13203;DHT22;6666;51.626;7.530;2023-10-13T15:48:06;21.70;99.90
13203;DHT22;6666;51.626;7.530;2023-10-13T15:50:37;21.60;99.90
13203;DHT22;6666;51.626;7.530;2023-10-13T15:53:09;21.60;99.90
13203;DHT22;6666;51.626;7.530;2023-10-13T15:55:40;21.60;99.90
13203;DHT22;6666;51.626;7.530;2023-10-13T15:58:12;21.60;99.90
13203;DHT22;6666;51.626;7.530;2023-10-13T16:00:41;21.60;99.90
13203;DHT22;6666;51.626;7.530;2023-10-13T16:03:09;21.60;99.90
13203;DHT22;6666;51.626;7.530;2023-10-13T16:05:39;21.50;99.90
13203;DHT22;6666;51.626;7.530;2023-10-13T16:08:12;21.60;99.90
13203;DHT22;6666;51.626;7.530;2023-10-13T16:10:40;21.60;99.90
13203;DHT22;6666;51.626;7.530;2023-10-13T16:13:09;21.60;99.90
13203;DHT22;6666;51.626;7.530;2023-10-13T16:15:43;21.60;99.90
13203;DHT22;6666;51.626;7.530;2023-10-13T16:18:14;21.60;99.90
13203;DHT22;6666;51.626;7.530;2023-10-13T16:20:49;21.60;99.90
13203;DHT22;6666;51.626;7.530;2023-10-13T16:23:19;21.70;99.90
13203;DHT22;6666;51.626;7.530;2023-10-13T16:25:47;21.60;99.90
13203;DHT22;6666;51.626;7.530;2023-10-13T16:28:16;21.40;99.90
13203;DHT22;6666;51.626;7.530;2023-10-13T16:30:44;21.40;99.90
13203;DHT22;6666;51.626;7.530;2023-10-13T16:33:13;21.40;99.90
13203;DHT22;6666;51.626;7.530;2023-10-13T16:35:42;21.30;99.90
13203;DHT22;6666;51.626;7.530;2023-10-13T16:38:13;21.40;99.90